sensor_id;sensor_type;location;lat;lon;timestamp;P1;durP1;ratioP1;P2;durP2;ratioP2
44606;SDS011;30315;46.072;14.474;2023-05-07T00:01:34;6.43;;;5.15;;
44606;SDS011;30315;46.072;14.474;2023-05-07T00:04:01;5.35;;;4.95;;
44606;SDS011;30315;46.072;14.474;2023-05-07T00:06:31;5.25;;;4.85;;
44606;SDS011;30315;46.072;14.474;2023-05-07T00:08:59;5.55;;;5.15;;
44606;SDS011;30315;46.072;14.474;2023-05-07T00:11:27;5.15;;;4.85;;
44606;SDS011;30315;46.072;14.474;2023-05-07T00:13:54;5.28;;;4.82;;
44606;SDS011;30315;46.072;14.474;2023-05-07T00:16:21;5.57;;;5.07;;
44606;SDS011;30315;46.072;14.474;2023-05-07T00:18:48;6.03;;;5.50;;
44606;SDS011;30315;46.072;14.474;2023-05-07T00:21:15;6.22;;;5.63;;
44606;SDS011;30315;46.072;14.474;2023-05-07T00:23:43;6.15;;;5.70;;
44606;SDS011;30315;46.072;14.474;2023-05-07T00:26:09;6.68;;;5.65;;
44606;SDS011;30315;46.072;14.474;2023-05-07T00:28:38;5.28;;;4.78;;
44606;SDS011;30315;46.072;14.474;2023-05-07T00:31:05;5.47;;;4.95;;
44606;SDS011;30315;46.072;14.474;2023-05-07T00:33:32;5.47;;;4.97;;
44606;SDS011;30315;46.072;14.474;2023-05-07T00:35:59;5.60;;;5.10;;
44606;SDS011;30315;46.072;14.474;2023-05-07T00:38:28;6.40;;;5.85;;
44606;SDS011;30315;46.072;14.474;2023-05-07T00:40:55;5.80;;;5.13;;
44606;SDS011;30315;46.072;14.474;2023-05-07T00:43:22;5.07;;;4.68;;
44606;SDS011;30315;46.072;14.474;2023-05-07T00:45:49;5.85;;;5.40;;
44606;SDS011;30315;46.072;14.474;2023-05-07T00:48:16;5.70;;;5.20;;
44606;SDS011;30315;46.072;14.474;2023-05-07T00:50:43;6.57;;;5.78;;
44606;SDS011;30315;46.072;14.474;2023-05-07T00:53:11;4.88;;;4.45;;
44606;SDS011;30315;46.072;14.474;2023-05-07T00:55:39;5.13;;;4.82;;
44606;SDS011;30315;46.072;14.474;2023-05-07T00:58:06;5.80;;;5.30;;
44606;SDS011;30315;46.072;14.474;2023-05-07T01:00:33;6.32;;;5.07;;
44606;SDS011;30315;46.072;14.474;2023-05-07T01:03:02;5.30;;;4.55;;
44606;SDS011;30315;46.072;14.474;2023-05-07T01:05:30;5.53;;;5.13;;
44606;SDS011;30315;46.072;14.474;2023-05-07T01:07:57;5.35;;;4.95;;
44606;SDS011;30315;46.072;14.474;2023-05-07T01:10:25;6.05;;;5.53;;
44606;SDS011;30315;46.072;14.474;2023-05-07T01:12:53;5.45;;;5.07;;
44606;SDS011;30315;46.072;14.474;2023-05-07T01:15:21;5.97;;;5.55;;
44606;SDS011;30315;46.072;14.474;2023-05-07T01:17:48;5.60;;;5.10;;
44606;SDS011;30315;46.072;14.474;2023-05-07T01:20:25;5.03;;;4.65;;
44606;SDS011;30315;46.072;14.474;2023-05-07T01:25:23;6.18;;;5.57;;
44606;SDS011;30315;46.072;14.474;2023-05-07T01:27:53;8.43;;;5.53;;
44606;SDS011;30315;46.072;14.474;2023-05-07T01:30:24;5.45;;;4.75;;
44606;SDS011;30315;46.072;14.474;2023-05-07T01:35:27;5.85;;;5.35;;
44606;SDS011;30315;46.072;14.474;2023-05-07T01:37:58;4.63;;;4.32;;
44606;SDS011;30315;46.072;14.474;2023-05-07T01:40:26;5.25;;;4.85;;
44606;SDS011;30315;46.072;14.474;2023-05-07T01:42:54;7.72;;;5.03;;
44606;SDS011;30315;46.072;14.474;2023-05-07T01:45:21;5.22;;;4.93;;
44606;SDS011;30315;46.072;14.474;2023-05-07T01:47:49;5.63;;;5.13;;
44606;SDS011;30315;46.072;14.474;2023-05-07T01:50:18;5.63;;;5.22;;
44606;SDS011;30315;46.072;14.474;2023-05-07T01:52:47;5.95;;;5.43;;
44606;SDS011;30315;46.072;14.474;2023-05-07T01:55:15;5.90;;;5.40;;
44606;SDS011;30315;46.072;14.474;2023-05-07T01:57:42;5.25;;;4.80;;
44606;SDS011;30315;46.072;14.474;2023-05-07T02:00:10;6.03;;;5.57;;
44606;SDS011;30315;46.072;14.474;2023-05-07T02:02:41;6.22;;;5.72;;
44606;SDS011;30315;46.072;14.474;2023-05-07T02:05:19;6.35;;;5.03;;
44606;SDS011;30315;46.072;14.474;2023-05-07T02:07:54;6.03;;;5.43;;
44606;SDS011;30315;46.072;14.474;2023-05-07T02:10:23;5.55;;;5.03;;
44606;SDS011;30315;46.072;14.474;2023-05-07T02:12:50;5.55;;;4.93;;
44606;SDS011;30315;46.072;14.474;2023-05-07T02:15:17;5.70;;;5.13;;
44606;SDS011;30315;46.072;14.474;2023-05-07T02:17:58;5.80;;;5.30;;
44606;SDS011;30315;46.072;14.474;2023-05-07T02:23:12;5.78;;;5.28;;
44606;SDS011;30315;46.072;14.474;2023-05-07T02:25:39;5.03;;;4.60;;
44606;SDS011;30315;46.072;14.474;2023-05-07T02:28:06;5.75;;;5.35;;
44606;SDS011;30315;46.072;14.474;2023-05-07T02:30:43;5.25;;;4.85;;
44606;SDS011;30315;46.072;14.474;2023-05-07T02:33:10;5.85;;;5.28;;
44606;SDS011;30315;46.072;14.474;2023-05-07T02:35:39;5.40;;;4.90;;
44606;SDS011;30315;46.072;14.474;2023-05-07T02:38:07;4.82;;;4.50;;
44606;SDS011;30315;46.072;14.474;2023-05-07T02:40:38;5.03;;;4.65;;
44606;SDS011;30315;46.072;14.474;2023-05-07T02:43:06;4.65;;;4.45;;
44606;SDS011;30315;46.072;14.474;2023-05-07T02:45:33;5.45;;;4.95;;
44606;SDS011;30315;46.072;14.474;2023-05-07T02:48:02;5.25;;;4.70;;
44606;SDS011;30315;46.072;14.474;2023-05-07T02:50:29;5.07;;;4.65;;
44606;SDS011;30315;46.072;14.474;2023-05-07T02:52:56;4.95;;;4.60;;
44606;SDS011;30315;46.072;14.474;2023-05-07T02:55:23;4.88;;;4.55;;
44606;SDS011;30315;46.072;14.474;2023-05-07T02:57:50;5.75;;;4.80;;
44606;SDS011;30315;46.072;14.474;2023-05-07T03:00:18;5.45;;;4.93;;
44606;SDS011;30315;46.072;14.474;2023-05-07T03:02:59;5.38;;;4.88;;
44606;SDS011;30315;46.072;14.474;2023-05-07T03:05:26;5.40;;;5.00;;
44606;SDS011;30315;46.072;14.474;2023-05-07T03:07:53;5.40;;;5.00;;
44606;SDS011;30315;46.072;14.474;2023-05-07T03:10:20;5.68;;;5.13;;
44606;SDS011;30315;46.072;14.474;2023-05-07T03:12:47;5.60;;;5.18;;
44606;SDS011;30315;46.072;14.474;2023-05-07T03:15:16;5.47;;;5.07;;
44606;SDS011;30315;46.072;14.474;2023-05-07T03:17:43;5.78;;;5.18;;
44606;SDS011;30315;46.072;14.474;2023-05-07T03:20:10;5.22;;;4.90;;
44606;SDS011;30315;46.072;14.474;2023-05-07T03:22:39;5.50;;;5.10;;
44606;SDS011;30315;46.072;14.474;2023-05-07T03:25:08;6.15;;;4.78;;
44606;SDS011;30315;46.072;14.474;2023-05-07T03:27:35;5.20;;;4.80;;
44606;SDS011;30315;46.072;14.474;2023-05-07T03:30:03;5.03;;;4.57;;
44606;SDS011;30315;46.072;14.474;2023-05-07T03:32:31;5.00;;;4.57;;
44606;SDS011;30315;46.072;14.474;2023-05-07T03:34:58;5.47;;;5.07;;
44606;SDS011;30315;46.072;14.474;2023-05-07T03:37:25;7.75;;;4.70;;
44606;SDS011;30315;46.072;14.474;2023-05-07T03:39:53;4.85;;;4.45;;
44606;SDS011;30315;46.072;14.474;2023-05-07T03:42:19;4.80;;;4.40;;
44606;SDS011;30315;46.072;14.474;2023-05-07T03:47:17;4.75;;;4.45;;
44606;SDS011;30315;46.072;14.474;2023-05-07T03:49:45;4.57;;;4.28;;
44606;SDS011;30315;46.072;14.474;2023-05-07T03:52:13;5.00;;;4.70;;
44606;SDS011;30315;46.072;14.474;2023-05-07T03:54:40;5.53;;;5.10;;
44606;SDS011;30315;46.072;14.474;2023-05-07T03:57:13;4.63;;;4.25;;
44606;SDS011;30315;46.072;14.474;2023-05-07T03:59:40;4.72;;;4.43;;
44606;SDS011;30315;46.072;14.474;2023-05-07T04:02:08;4.85;;;4.55;;
44606;SDS011;30315;46.072;14.474;2023-05-07T04:04:35;4.90;;;4.53;;
44606;SDS011;30315;46.072;14.474;2023-05-07T04:07:02;5.40;;;4.88;;
44606;SDS011;30315;46.072;14.474;2023-05-07T04:09:32;5.60;;;4.90;;
44606;SDS011;30315;46.072;14.474;2023-05-07T04:11:59;5.15;;;4.85;;
44606;SDS011;30315;46.072;14.474;2023-05-07T04:14:28;5.20;;;4.80;;
44606;SDS011;30315;46.072;14.474;2023-05-07T04:16:58;5.97;;;4.97;;
44606;SDS011;30315;46.072;14.474;2023-05-07T04:19:26;4.90;;;4.57;;
44606;SDS011;30315;46.072;14.474;2023-05-07T04:21:54;5.32;;;4.93;;
44606;SDS011;30315;46.072;14.474;2023-05-07T04:24:21;6.28;;;4.93;;
44606;SDS011;30315;46.072;14.474;2023-05-07T04:26:48;5.28;;;4.90;;
44606;SDS011;30315;46.072;14.474;2023-05-07T04:29:19;7.63;;;5.45;;
44606;SDS011;30315;46.072;14.474;2023-05-07T04:31:47;5.00;;;4.60;;
44606;SDS011;30315;46.072;14.474;2023-05-07T04:34:14;5.30;;;4.90;;
44606;SDS011;30315;46.072;14.474;2023-05-07T04:36:41;5.80;;;5.35;;
44606;SDS011;30315;46.072;14.474;2023-05-07T04:39:11;5.97;;;5.38;;
44606;SDS011;30315;46.072;14.474;2023-05-07T04:41:42;5.40;;;4.95;;
44606;SDS011;30315;46.072;14.474;2023-05-07T04:44:09;5.63;;;5.32;;
44606;SDS011;30315;46.072;14.474;2023-05-07T04:46:37;6.63;;;6.13;;
44606;SDS011;30315;46.072;14.474;2023-05-07T04:49:04;6.70;;;6.10;;
44606;SDS011;30315;46.072;14.474;2023-05-07T04:51:32;7.10;;;6.35;;
44606;SDS011;30315;46.072;14.474;2023-05-07T04:53:59;7.55;;;6.53;;
44606;SDS011;30315;46.072;14.474;2023-05-07T04:56:28;9.48;;;6.32;;
44606;SDS011;30315;46.072;14.474;2023-05-07T04:58:59;8.10;;;6.35;;
44606;SDS011;30315;46.072;14.474;2023-05-07T05:01:27;6.47;;;5.97;;
44606;SDS011;30315;46.072;14.474;2023-05-07T05:03:55;6.43;;;6.03;;
44606;SDS011;30315;46.072;14.474;2023-05-07T05:06:22;6.70;;;6.03;;
44606;SDS011;30315;46.072;14.474;2023-05-07T05:08:50;6.78;;;5.97;;
44606;SDS011;30315;46.072;14.474;2023-05-07T05:11:17;6.38;;;5.88;;
44606;SDS011;30315;46.072;14.474;2023-05-07T05:13:45;6.10;;;5.63;;
44606;SDS011;30315;46.072;14.474;2023-05-07T05:16:18;6.40;;;5.80;;
44606;SDS011;30315;46.072;14.474;2023-05-07T05:18:46;5.35;;;4.93;;
44606;SDS011;30315;46.072;14.474;2023-05-07T05:21:16;6.85;;;5.25;;
44606;SDS011;30315;46.072;14.474;2023-05-07T05:23:46;6.05;;;5.55;;
44606;SDS011;30315;46.072;14.474;2023-05-07T05:26:17;6.78;;;6.18;;
44606;SDS011;30315;46.072;14.474;2023-05-07T05:28:45;6.38;;;5.97;;
44606;SDS011;30315;46.072;14.474;2023-05-07T05:31:12;6.00;;;5.60;;
44606;SDS011;30315;46.072;14.474;2023-05-07T05:33:41;5.82;;;5.47;;
44606;SDS011;30315;46.072;14.474;2023-05-07T05:36:11;6.53;;;6.03;;
44606;SDS011;30315;46.072;14.474;2023-05-07T05:38:41;6.20;;;5.72;;
44606;SDS011;30315;46.072;14.474;2023-05-07T05:41:09;6.47;;;5.97;;
44606;SDS011;30315;46.072;14.474;2023-05-07T05:43:36;6.00;;;5.60;;
44606;SDS011;30315;46.072;14.474;2023-05-07T05:46:04;6.07;;;5.68;;
44606;SDS011;30315;46.072;14.474;2023-05-07T05:48:31;6.13;;;5.63;;
44606;SDS011;30315;46.072;14.474;2023-05-07T05:51:00;6.72;;;6.20;;
44606;SDS011;30315;46.072;14.474;2023-05-07T05:53:27;6.50;;;6.00;;
44606;SDS011;30315;46.072;14.474;2023-05-07T05:55:54;6.85;;;6.35;;
44606;SDS011;30315;46.072;14.474;2023-05-07T05:58:21;6.95;;;5.97;;
44606;SDS011;30315;46.072;14.474;2023-05-07T06:00:54;6.40;;;5.65;;
44606;SDS011;30315;46.072;14.474;2023-05-07T06:03:24;5.78;;;5.38;;
44606;SDS011;30315;46.072;14.474;2023-05-07T06:05:54;6.63;;;6.13;;
44606;SDS011;30315;46.072;14.474;2023-05-07T06:08:21;6.75;;;6.10;;
44606;SDS011;30315;46.072;14.474;2023-05-07T06:10:49;6.60;;;6.10;;
44606;SDS011;30315;46.072;14.474;2023-05-07T06:13:16;7.00;;;6.25;;
44606;SDS011;30315;46.072;14.474;2023-05-07T06:15:43;10.00;;;6.38;;
44606;SDS011;30315;46.072;14.474;2023-05-07T06:18:12;7.00;;;6.50;;
44606;SDS011;30315;46.072;14.474;2023-05-07T06:20:40;6.82;;;6.28;;
44606;SDS011;30315;46.072;14.474;2023-05-07T06:23:13;7.05;;;6.45;;
44606;SDS011;30315;46.072;14.474;2023-05-07T06:25:47;6.60;;;6.05;;
44606;SDS011;30315;46.072;14.474;2023-05-07T06:28:19;6.30;;;5.88;;
44606;SDS011;30315;46.072;14.474;2023-05-07T06:30:46;7.10;;;6.50;;
44606;SDS011;30315;46.072;14.474;2023-05-07T06:33:16;6.90;;;6.28;;
44606;SDS011;30315;46.072;14.474;2023-05-07T06:35:43;6.95;;;6.25;;
44606;SDS011;30315;46.072;14.474;2023-05-07T06:38:10;6.95;;;6.35;;
44606;SDS011;30315;46.072;14.474;2023-05-07T06:40:39;6.40;;;6.00;;
44606;SDS011;30315;46.072;14.474;2023-05-07T06:43:06;7.05;;;6.40;;
44606;SDS011;30315;46.072;14.474;2023-05-07T06:45:52;6.97;;;6.38;;
44606;SDS011;30315;46.072;14.474;2023-05-07T06:48:20;7.07;;;6.57;;
44606;SDS011;30315;46.072;14.474;2023-05-07T06:50:59;6.85;;;6.35;;
44606;SDS011;30315;46.072;14.474;2023-05-07T06:53:30;6.65;;;6.18;;
44606;SDS011;30315;46.072;14.474;2023-05-07T06:55:59;6.35;;;5.85;;
44606;SDS011;30315;46.072;14.474;2023-05-07T06:58:26;6.53;;;6.10;;
44606;SDS011;30315;46.072;14.474;2023-05-07T07:00:53;6.55;;;6.00;;
44606;SDS011;30315;46.072;14.474;2023-05-07T07:03:20;7.50;;;6.90;;
44606;SDS011;30315;46.072;14.474;2023-05-07T07:05:47;8.43;;;7.63;;
44606;SDS011;30315;46.072;14.474;2023-05-07T07:08:18;8.30;;;7.43;;
44606;SDS011;30315;46.072;14.474;2023-05-07T07:10:47;6.55;;;6.15;;
44606;SDS011;30315;46.072;14.474;2023-05-07T07:13:15;8.20;;;6.68;;
44606;SDS011;30315;46.072;14.474;2023-05-07T07:15:43;6.18;;;5.75;;
44606;SDS011;30315;46.072;14.474;2023-05-07T07:18:10;6.70;;;6.10;;
44606;SDS011;30315;46.072;14.474;2023-05-07T07:20:38;6.93;;;5.97;;
44606;SDS011;30315;46.072;14.474;2023-05-07T07:23:07;6.30;;;5.90;;
44606;SDS011;30315;46.072;14.474;2023-05-07T07:25:34;5.80;;;5.40;;
44606;SDS011;30315;46.072;14.474;2023-05-07T07:28:01;5.07;;;4.70;;
44606;SDS011;30315;46.072;14.474;2023-05-07T07:30:28;5.95;;;5.45;;
44606;SDS011;30315;46.072;14.474;2023-05-07T07:32:55;5.47;;;4.97;;
44606;SDS011;30315;46.072;14.474;2023-05-07T07:35:32;5.28;;;4.97;;
44606;SDS011;30315;46.072;14.474;2023-05-07T07:37:59;5.32;;;4.93;;
44606;SDS011;30315;46.072;14.474;2023-05-07T07:40:28;4.80;;;4.40;;
44606;SDS011;30315;46.072;14.474;2023-05-07T07:42:56;5.15;;;4.75;;
44606;SDS011;30315;46.072;14.474;2023-05-07T07:45:23;4.72;;;4.43;;
44606;SDS011;30315;46.072;14.474;2023-05-07T07:47:51;4.85;;;4.55;;
44606;SDS011;30315;46.072;14.474;2023-05-07T07:50:18;4.82;;;4.10;;
44606;SDS011;30315;46.072;14.474;2023-05-07T07:53:06;4.95;;;4.65;;
44606;SDS011;30315;46.072;14.474;2023-05-07T07:55:37;4.03;;;3.83;;
44606;SDS011;30315;46.072;14.474;2023-05-07T07:58:10;4.75;;;4.45;;
44606;SDS011;30315;46.072;14.474;2023-05-07T08:00:37;4.82;;;4.43;;
44606;SDS011;30315;46.072;14.474;2023-05-07T08:03:04;4.88;;;4.53;;
44606;SDS011;30315;46.072;14.474;2023-05-07T08:05:35;4.82;;;4.43;;
44606;SDS011;30315;46.072;14.474;2023-05-07T08:08:04;4.25;;;3.90;;
44606;SDS011;30315;46.072;14.474;2023-05-07T08:10:34;4.82;;;4.40;;
44606;SDS011;30315;46.072;14.474;2023-05-07T08:13:07;5.05;;;4.65;;
44606;SDS011;30315;46.072;14.474;2023-05-07T08:15:36;4.82;;;4.43;;
44606;SDS011;30315;46.072;14.474;2023-05-07T08:18:04;4.60;;;4.30;;
44606;SDS011;30315;46.072;14.474;2023-05-07T08:20:32;4.40;;;4.13;;
44606;SDS011;30315;46.072;14.474;2023-05-07T08:23:02;4.63;;;4.32;;
44606;SDS011;30315;46.072;14.474;2023-05-07T08:25:29;4.28;;;3.97;;
44606;SDS011;30315;46.072;14.474;2023-05-07T08:27:56;4.57;;;4.20;;
44606;SDS011;30315;46.072;14.474;2023-05-07T08:30:24;4.53;;;4.18;;
44606;SDS011;30315;46.072;14.474;2023-05-07T08:32:52;4.28;;;3.97;;
44606;SDS011;30315;46.072;14.474;2023-05-07T08:35:19;4.47;;;4.15;;
44606;SDS011;30315;46.072;14.474;2023-05-07T08:37:46;4.35;;;4.05;;
44606;SDS011;30315;46.072;14.474;2023-05-07T08:40:16;3.83;;;3.63;;
44606;SDS011;30315;46.072;14.474;2023-05-07T08:42:43;6.07;;;3.97;;
44606;SDS011;30315;46.072;14.474;2023-05-07T08:45:11;3.80;;;3.50;;
44606;SDS011;30315;46.072;14.474;2023-05-07T08:47:43;4.18;;;3.88;;
44606;SDS011;30315;46.072;14.474;2023-05-07T08:50:15;4.13;;;3.85;;
44606;SDS011;30315;46.072;14.474;2023-05-07T08:52:43;4.45;;;4.07;;
44606;SDS011;30315;46.072;14.474;2023-05-07T08:55:11;4.00;;;3.70;;
44606;SDS011;30315;46.072;14.474;2023-05-07T08:57:40;4.10;;;3.53;;
44606;SDS011;30315;46.072;14.474;2023-05-07T09:00:09;4.63;;;4.30;;
44606;SDS011;30315;46.072;14.474;2023-05-07T09:02:39;4.20;;;3.90;;
44606;SDS011;30315;46.072;14.474;2023-05-07T09:05:07;3.95;;;3.70;;
44606;SDS011;30315;46.072;14.474;2023-05-07T09:07:36;4.57;;;4.22;;
44606;SDS011;30315;46.072;14.474;2023-05-07T09:10:06;4.32;;;3.92;;
44606;SDS011;30315;46.072;14.474;2023-05-07T09:12:35;16.98;;;4.97;;
44606;SDS011;30315;46.072;14.474;2023-05-07T09:15:05;3.80;;;3.58;;
44606;SDS011;30315;46.072;14.474;2023-05-07T09:17:34;4.05;;;3.75;;
44606;SDS011;30315;46.072;14.474;2023-05-07T09:20:02;4.03;;;3.83;;
44606;SDS011;30315;46.072;14.474;2023-05-07T09:22:33;3.67;;;3.47;;
44606;SDS011;30315;46.072;14.474;2023-05-07T09:25:06;3.65;;;3.33;;
44606;SDS011;30315;46.072;14.474;2023-05-07T09:27:35;3.95;;;3.60;;
44606;SDS011;30315;46.072;14.474;2023-05-07T09:30:03;4.30;;;3.92;;
44606;SDS011;30315;46.072;14.474;2023-05-07T09:32:36;5.05;;;4.25;;
44606;SDS011;30315;46.072;14.474;2023-05-07T09:35:16;4.25;;;3.85;;
44606;SDS011;30315;46.072;14.474;2023-05-07T09:37:50;3.97;;;3.75;;
44606;SDS011;30315;46.072;14.474;2023-05-07T09:40:23;4.50;;;4.20;;
44606;SDS011;30315;46.072;14.474;2023-05-07T09:43:08;4.05;;;3.85;;
44606;SDS011;30315;46.072;14.474;2023-05-07T09:45:39;4.20;;;4.00;;
44606;SDS011;30315;46.072;14.474;2023-05-07T09:48:08;4.63;;;4.28;;
44606;SDS011;30315;46.072;14.474;2023-05-07T09:50:48;4.22;;;3.83;;
44606;SDS011;30315;46.072;14.474;2023-05-07T09:53:22;4.00;;;3.75;;
44606;SDS011;30315;46.072;14.474;2023-05-07T09:55:50;4.47;;;4.13;;
44606;SDS011;30315;46.072;14.474;2023-05-07T09:58:20;4.35;;;3.95;;
44606;SDS011;30315;46.072;14.474;2023-05-07T10:00:50;4.10;;;3.80;;
44606;SDS011;30315;46.072;14.474;2023-05-07T10:03:18;3.58;;;3.28;;
44606;SDS011;30315;46.072;14.474;2023-05-07T10:05:53;3.90;;;3.60;;
44606;SDS011;30315;46.072;14.474;2023-05-07T10:08:22;4.33;;;3.90;;
44606;SDS011;30315;46.072;14.474;2023-05-07T10:10:53;4.70;;;4.30;;
44606;SDS011;30315;46.072;14.474;2023-05-07T10:13:23;3.72;;;3.53;;
44606;SDS011;30315;46.072;14.474;2023-05-07T10:15:54;5.03;;;3.63;;
44606;SDS011;30315;46.072;14.474;2023-05-07T10:18:25;5.10;;;4.13;;
44606;SDS011;30315;46.072;14.474;2023-05-07T10:21:11;4.57;;;3.72;;
44606;SDS011;30315;46.072;14.474;2023-05-07T10:23:49;3.78;;;3.47;;
44606;SDS011;30315;46.072;14.474;2023-05-07T10:26:20;3.67;;;3.42;;
44606;SDS011;30315;46.072;14.474;2023-05-07T10:28:50;4.05;;;3.75;;
44606;SDS011;30315;46.072;14.474;2023-05-07T10:34:11;3.67;;;3.40;;
44606;SDS011;30315;46.072;14.474;2023-05-07T10:36:43;4.25;;;3.38;;
44606;SDS011;30315;46.072;14.474;2023-05-07T10:39:12;3.27;;;3.00;;
44606;SDS011;30315;46.072;14.474;2023-05-07T10:41:40;4.07;;;3.50;;
44606;SDS011;30315;46.072;14.474;2023-05-07T10:44:09;3.60;;;3.35;;
44606;SDS011;30315;46.072;14.474;2023-05-07T10:46:36;3.85;;;3.58;;
44606;SDS011;30315;46.072;14.474;2023-05-07T10:49:18;3.55;;;3.25;;
44606;SDS011;30315;46.072;14.474;2023-05-07T10:57:44;3.58;;;3.30;;
44606;SDS011;30315;46.072;14.474;2023-05-07T11:03:12;3.25;;;3.05;;
44606;SDS011;30315;46.072;14.474;2023-05-07T11:06:11;4.47;;;2.97;;
44606;SDS011;30315;46.072;14.474;2023-05-07T11:11:50;3.97;;;3.78;;
44606;SDS011;30315;46.072;14.474;2023-05-07T11:14:51;4.40;;;3.00;;
44606;SDS011;30315;46.072;14.474;2023-05-07T11:17:29;3.50;;;3.20;;
44606;SDS011;30315;46.072;14.474;2023-05-07T11:20:06;3.38;;;3.10;;
44606;SDS011;30315;46.072;14.474;2023-05-07T11:22:48;2.80;;;2.60;;
44606;SDS011;30315;46.072;14.474;2023-05-07T11:25:24;2.65;;;2.55;;
44606;SDS011;30315;46.072;14.474;2023-05-07T11:28:05;2.70;;;2.60;;
44606;SDS011;30315;46.072;14.474;2023-05-07T11:30:43;3.17;;;2.97;;
44606;SDS011;30315;46.072;14.474;2023-05-07T11:33:17;3.15;;;2.95;;
44606;SDS011;30315;46.072;14.474;2023-05-07T11:35:47;2.53;;;2.42;;
44606;SDS011;30315;46.072;14.474;2023-05-07T11:38:17;2.70;;;2.60;;
44606;SDS011;30315;46.072;14.474;2023-05-07T11:43:18;2.90;;;2.70;;
44606;SDS011;30315;46.072;14.474;2023-05-07T11:45:46;2.97;;;2.78;;
44606;SDS011;30315;46.072;14.474;2023-05-07T11:48:15;2.67;;;2.47;;
44606;SDS011;30315;46.072;14.474;2023-05-07T11:50:53;2.67;;;2.50;;
44606;SDS011;30315;46.072;14.474;2023-05-07T11:53:26;2.45;;;2.30;;
44606;SDS011;30315;46.072;14.474;2023-05-07T11:55:55;2.30;;;2.20;;
44606;SDS011;30315;46.072;14.474;2023-05-07T11:58:23;2.85;;;2.65;;
44606;SDS011;30315;46.072;14.474;2023-05-07T12:00:53;2.65;;;2.45;;
44606;SDS011;30315;46.072;14.474;2023-05-07T12:03:21;2.65;;;2.45;;
44606;SDS011;30315;46.072;14.474;2023-05-07T12:05:48;2.85;;;2.65;;
44606;SDS011;30315;46.072;14.474;2023-05-07T12:08:16;4.18;;;3.85;;
44606;SDS011;30315;46.072;14.474;2023-05-07T12:10:46;3.08;;;2.83;;
44606;SDS011;30315;46.072;14.474;2023-05-07T12:13:18;2.83;;;2.63;;
44606;SDS011;30315;46.072;14.474;2023-05-07T12:15:54;2.85;;;2.65;;
44606;SDS011;30315;46.072;14.474;2023-05-07T12:18:22;2.63;;;2.42;;
44606;SDS011;30315;46.072;14.474;2023-05-07T12:20:50;2.50;;;2.40;;
44606;SDS011;30315;46.072;14.474;2023-05-07T12:23:18;4.03;;;2.05;;
44606;SDS011;30315;46.072;14.474;2023-05-07T12:25:45;1.90;;;1.80;;
44606;SDS011;30315;46.072;14.474;2023-05-07T12:28:14;2.97;;;2.77;;
44606;SDS011;30315;46.072;14.474;2023-05-07T12:30:43;3.20;;;3.00;;
44606;SDS011;30315;46.072;14.474;2023-05-07T12:33:11;2.70;;;2.50;;
44606;SDS011;30315;46.072;14.474;2023-05-07T12:35:42;2.40;;;2.20;;
44606;SDS011;30315;46.072;14.474;2023-05-07T12:38:11;2.10;;;1.98;;
44606;SDS011;30315;46.072;14.474;2023-05-07T12:40:44;2.22;;;2.13;;
44606;SDS011;30315;46.072;14.474;2023-05-07T12:43:17;2.00;;;1.90;;
44606;SDS011;30315;46.072;14.474;2023-05-07T12:45:47;2.17;;;2.08;;
44606;SDS011;30315;46.072;14.474;2023-05-07T12:48:15;2.33;;;2.15;;
44606;SDS011;30315;46.072;14.474;2023-05-07T12:50:43;2.95;;;2.15;;
44606;SDS011;30315;46.072;14.474;2023-05-07T12:53:11;2.45;;;2.15;;
44606;SDS011;30315;46.072;14.474;2023-05-07T12:55:42;2.23;;;2.13;;
44606;SDS011;30315;46.072;14.474;2023-05-07T12:58:18;2.58;;;2.38;;
44606;SDS011;30315;46.072;14.474;2023-05-07T13:00:51;2.20;;;2.10;;
44606;SDS011;30315;46.072;14.474;2023-05-07T13:03:26;2.25;;;2.15;;
44606;SDS011;30315;46.072;14.474;2023-05-07T13:05:57;2.05;;;1.95;;
44606;SDS011;30315;46.072;14.474;2023-05-07T13:08:27;2.20;;;2.00;;
44606;SDS011;30315;46.072;14.474;2023-05-07T13:13:30;2.83;;;2.25;;
44606;SDS011;30315;46.072;14.474;2023-05-07T13:16:03;2.15;;;2.05;;
44606;SDS011;30315;46.072;14.474;2023-05-07T13:18:32;4.28;;;2.13;;
44606;SDS011;30315;46.072;14.474;2023-05-07T13:21:00;2.13;;;2.03;;
44606;SDS011;30315;46.072;14.474;2023-05-07T13:23:28;2.20;;;2.10;;
44606;SDS011;30315;46.072;14.474;2023-05-07T13:25:55;2.28;;;2.13;;
44606;SDS011;30315;46.072;14.474;2023-05-07T13:28:23;2.38;;;2.28;;
44606;SDS011;30315;46.072;14.474;2023-05-07T13:30:51;3.95;;;2.60;;
44606;SDS011;30315;46.072;14.474;2023-05-07T13:33:18;3.95;;;2.70;;
44606;SDS011;30315;46.072;14.474;2023-05-07T13:35:46;2.67;;;2.58;;
44606;SDS011;30315;46.072;14.474;2023-05-07T13:38:13;2.40;;;2.30;;
44606;SDS011;30315;46.072;14.474;2023-05-07T13:43:12;2.53;;;2.40;;
44606;SDS011;30315;46.072;14.474;2023-05-07T13:45:39;2.80;;;2.70;;
44606;SDS011;30315;46.072;14.474;2023-05-07T13:48:09;3.35;;;3.03;;
44606;SDS011;30315;46.072;14.474;2023-05-07T13:50:37;2.78;;;2.67;;
44606;SDS011;30315;46.072;14.474;2023-05-07T13:53:07;2.90;;;2.70;;
44606;SDS011;30315;46.072;14.474;2023-05-07T13:55:34;3.63;;;2.60;;
44606;SDS011;30315;46.072;14.474;2023-05-07T13:58:02;2.75;;;2.60;;
44606;SDS011;30315;46.072;14.474;2023-05-07T14:00:32;4.80;;;2.90;;
44606;SDS011;30315;46.072;14.474;2023-05-07T14:02:59;3.40;;;3.10;;
44606;SDS011;30315;46.072;14.474;2023-05-07T14:05:27;3.60;;;3.30;;
44606;SDS011;30315;46.072;14.474;2023-05-07T14:07:54;3.15;;;2.95;;
44606;SDS011;30315;46.072;14.474;2023-05-07T14:12:51;4.30;;;2.90;;
44606;SDS011;30315;46.072;14.474;2023-05-07T14:15:19;3.13;;;2.92;;
44606;SDS011;30315;46.072;14.474;2023-05-07T14:17:46;3.35;;;2.65;;
44606;SDS011;30315;46.072;14.474;2023-05-07T14:20:14;5.05;;;2.70;;
44606;SDS011;30315;46.072;14.474;2023-05-07T14:22:41;2.78;;;2.58;;
44606;SDS011;30315;46.072;14.474;2023-05-07T14:25:08;2.97;;;2.78;;
44606;SDS011;30315;46.072;14.474;2023-05-07T14:27:36;3.30;;;2.50;;
44606;SDS011;30315;46.072;14.474;2023-05-07T14:30:04;2.85;;;2.22;;
44606;SDS011;30315;46.072;14.474;2023-05-07T14:32:32;2.88;;;2.50;;
44606;SDS011;30315;46.072;14.474;2023-05-07T14:34:59;3.20;;;2.75;;
44606;SDS011;30315;46.072;14.474;2023-05-07T14:37:26;2.88;;;2.67;;
44606;SDS011;30315;46.072;14.474;2023-05-07T14:39:54;2.80;;;2.58;;
44606;SDS011;30315;46.072;14.474;2023-05-07T14:42:21;3.05;;;2.78;;
44606;SDS011;30315;46.072;14.474;2023-05-07T14:44:48;3.30;;;3.00;;
44606;SDS011;30315;46.072;14.474;2023-05-07T14:47:15;3.47;;;3.17;;
44606;SDS011;30315;46.072;14.474;2023-05-07T14:49:45;3.38;;;3.15;;
44606;SDS011;30315;46.072;14.474;2023-05-07T14:52:14;3.13;;;2.92;;
44606;SDS011;30315;46.072;14.474;2023-05-07T14:54:41;2.85;;;2.75;;
44606;SDS011;30315;46.072;14.474;2023-05-07T14:57:09;3.40;;;3.20;;
44606;SDS011;30315;46.072;14.474;2023-05-07T14:59:39;3.88;;;3.30;;
44606;SDS011;30315;46.072;14.474;2023-05-07T15:02:08;3.13;;;2.92;;
44606;SDS011;30315;46.072;14.474;2023-05-07T15:04:36;4.13;;;2.83;;
44606;SDS011;30315;46.072;14.474;2023-05-07T15:07:04;2.30;;;2.20;;
44606;SDS011;30315;46.072;14.474;2023-05-07T15:09:31;2.80;;;2.70;;
44606;SDS011;30315;46.072;14.474;2023-05-07T15:11:58;2.70;;;2.50;;
44606;SDS011;30315;46.072;14.474;2023-05-07T15:14:26;3.08;;;2.67;;
44606;SDS011;30315;46.072;14.474;2023-05-07T15:16:53;3.25;;;2.70;;
44606;SDS011;30315;46.072;14.474;2023-05-07T15:19:20;2.85;;;2.65;;
44606;SDS011;30315;46.072;14.474;2023-05-07T15:21:48;2.60;;;2.40;;